Time;durP1;ratioP1;P1;durP2;ratioP2;P2;SDS_P1;SDS_P2;PMS_P1;PMS_P2;Temp;Humidity;BMP_temperature;BMP_pressure;BME280_temperature;BME280_humidity;BME280_pressure;Samples;Min_cycle;Max_cycle;Signal;HPM_P1;HPM_P2
2023/02/10 00:00:14;;;;;;;45.70;22.53;;;;;;;2.51;73.54;102619.56;5062016;28;20216;-79
2023/02/10 00:02:41;;;;;;;42.23;22.07;;;;;;;2.51;73.18;102618.72;5061788;28;20750;-79
2023/02/10 00:05:07;;;;;;;40.37;21.93;;;;;;;2.51;73.69;102622.19;5065029;28;20227;-79
2023/02/10 00:07:34;;;;;;;48.43;23.70;;;;;;;2.50;73.82;102627.47;5061793;28;20686;-79
2023/02/10 00:10:00;;;;;;;46.77;23.87;;;;;;;2.47;74.89;102630.97;5062367;28;20197;-78
2023/02/10 00:12:36;;;;;;;51.20;22.97;;;;;;;2.48;74.81;102630.09;5068440;28;20225;-78
2023/02/10 00:15:02;;;;;;;43.00;22.87;;;;;;;2.50;74.72;102627.47;5070369;28;20205;-78
2023/02/10 00:17:30;;;;;;;47.83;23.53;;;;;;;2.50;74.74;102630.97;5067270;28;20301;-78
2023/02/10 00:19:56;;;;;;;50.73;23.27;;;;;;;2.51;74.73;102632.72;5072863;28;20208;-78
2023/02/10 00:22:23;;;;;;;46.47;23.73;;;;;;;2.51;74.78;102626.59;5074314;28;20748;-78
2023/02/10 00:24:49;;;;;;;47.27;23.63;;;;;;;2.51;75.68;102626.59;5060496;28;20657;-78
2023/02/10 00:27:20;;;;;;;44.53;23.93;;;;;;;2.52;75.94;102628.31;5067729;28;20258;-78
2023/02/10 00:29:48;;;;;;;45.77;23.13;;;;;;;2.51;75.59;102627.44;5073109;28;20676;-78
2023/02/10 00:32:17;;;;;;;50.83;25.67;;;;;;;2.53;76.31;102624.81;5068123;28;20231;-78
2023/02/10 00:34:47;;;;;;;50.17;24.20;;;;;;;2.51;76.29;102627.44;5069810;28;20277;-78
2023/02/10 00:37:14;;;;;;;51.30;24.47;;;;;;;2.52;76.39;102634.47;5063628;28;20767;-78
2023/02/10 00:39:40;;;;;;;50.80;24.33;;;;;;;2.52;75.92;102644.97;5068870;28;20212;-78
2023/02/10 00:42:07;;;;;;;49.63;24.27;;;;;;;2.51;76.87;102645.84;5063995;28;20221;-78
2023/02/10 00:44:33;;;;;;;42.77;23.60;;;;;;;2.52;76.21;102644.97;5065047;28;20212;-78
2023/02/10 00:47:00;;;;;;;55.50;23.83;;;;;;;2.53;76.29;102648.50;5071458;28;20539;-78
2023/02/10 00:49:26;;;;;;;49.17;25.80;;;;;;;2.52;76.37;102642.34;5066815;28;20709;-78
2023/02/10 00:51:54;;;;;;;52.90;24.53;;;;;;;2.49;77.38;102639.75;5067680;28;20224;-77
2023/02/10 00:54:20;;;;;;;49.97;24.00;;;;;;;2.49;77.41;102637.13;5076199;28;20204;-78
2023/02/10 00:56:47;;;;;;;52.70;24.27;;;;;;;2.48;77.53;102645.88;5071857;28;20196;-78
2023/02/10 00:59:15;;;;;;;50.83;23.70;;;;;;;2.48;77.49;102643.25;5066594;28;20680;-78
2023/02/10 01:01:41;;;;;;;48.37;24.20;;;;;;;2.46;77.51;102650.25;5060602;28;20279;-78
2023/02/10 01:04:08;;;;;;;47.57;26.03;;;;;;;2.46;77.31;102654.63;5073638;28;20205;-78
2023/02/10 01:09:34;;;;;;;55.80;26.10;;;;;;;2.46;77.23;102658.16;5025405;28;20250;-79
2023/02/10 01:12:00;;;;;;;52.53;25.80;;;;;;;2.46;77.65;102658.16;5073867;28;20217;-78
2023/02/10 01:14:27;;;;;;;56.13;25.33;;;;;;;2.46;77.70;102657.25;5065740;28;20205;-79
2023/02/10 01:16:54;;;;;;;48.40;25.30;;;;;;;2.44;77.95;102658.13;5067662;28;20201;-78
2023/02/10 01:19:20;;;;;;;45.57;24.60;;;;;;;2.44;78.61;102662.53;5062920;28;20209;-78
2023/02/10 01:21:47;;;;;;;44.17;25.33;;;;;;;2.43;78.74;102658.13;5068298;28;20631;-78
2023/02/10 01:24:13;;;;;;;45.40;24.97;;;;;;;2.42;78.59;102656.38;5068662;28;20205;-78
2023/02/10 01:26:42;;;;;;;50.37;23.63;;;;;;;2.41;78.54;102660.75;5068709;28;20205;-78
2023/02/10 01:29:08;;;;;;;49.00;25.37;;;;;;;2.42;78.61;102664.25;5064712;28;20701;-78
2023/02/10 01:31:35;;;;;;;52.63;25.40;;;;;;;2.40;78.67;102666.88;5073722;28;20687;-77
2023/02/10 01:34:01;;;;;;;50.57;25.57;;;;;;;2.41;78.82;102673.03;5070494;28;20784;-78
2023/02/10 01:36:28;;;;;;;61.40;25.93;;;;;;;2.41;78.63;102683.53;5067805;28;20828;-78
2023/02/10 01:38:54;;;;;;;55.70;26.83;;;;;;;2.40;79.43;102687.03;5072020;28;20204;-78
2023/02/10 01:41:23;;;;;;;52.83;27.43;;;;;;;2.39;79.63;102680.03;5066215;28;20712;-78
2023/02/10 01:44:00;;;;;;;58.00;25.20;;;;;;;2.40;79.13;102673.91;5063048;28;20204;-78
2023/02/10 01:46:27;;;;;;;53.37;26.33;;;;;;;2.40;79.46;102676.53;5063561;28;20199;-79
2023/02/10 01:48:56;;;;;;;49.50;25.50;;;;;;;2.39;80.01;102672.13;5067612;28;20235;-78
2023/02/10 01:51:29;;;;;;;54.90;26.37;;;;;;;2.40;80.10;102664.25;5070319;28;20232;-78
2023/02/10 01:53:56;;;;;;;52.33;25.50;;;;;;;2.39;79.56;102672.13;5068906;28;20200;-78
2023/02/10 01:56:23;;;;;;;51.87;25.30;;;;;;;2.39;79.91;102670.38;5073355;28;20697;-78
2023/02/10 01:58:49;;;;;;;56.33;26.60;;;;;;;2.40;79.73;102666.00;5065569;28;20996;-78
2023/02/10 02:01:18;;;;;;;58.07;26.87;;;;;;;2.40;80.30;102672.16;5069786;28;20235;-78
2023/02/10 02:03:44;;;;;;;53.63;25.90;;;;;;;2.39;79.96;102669.50;5063618;28;20210;-78
2023/02/10 02:06:11;;;;;;;53.70;27.17;;;;;;;2.38;80.44;102667.75;5064690;28;20216;-77
2023/02/10 02:08:38;;;;;;;51.40;27.13;;;;;;;2.38;80.31;102663.38;5065739;28;20221;-78
2023/02/10 02:11:17;;;;;;;55.23;27.63;;;;;;;2.38;80.87;102665.13;5069637;28;20687;-78
2023/02/10 02:13:55;;;;;;;53.17;27.37;;;;;;;2.39;81.01;102661.63;5069190;28;20212;-78
2023/02/10 02:16:35;;;;;;;59.57;28.63;;;;;;;2.37;80.76;102660.72;5061659;28;20205;-78
2023/02/10 02:19:16;;;;;;;51.13;26.57;;;;;;;2.37;81.02;102658.09;5072401;28;20649;-78
2023/02/10 02:22:07;;;;;;;54.50;25.03;;;;;;;2.37;81.94;102668.63;5068969;28;20649;-78
2023/02/10 02:24:59;;;;;;;56.93;26.30;;;;;;;2.37;81.39;102681.78;5067168;28;20201;-78
2023/02/10 02:27:52;;;;;;;59.87;28.43;;;;;;;2.35;81.86;102679.13;5065311;28;20209;-77
2023/02/10 02:31:03;;;;;;;61.30;27.30;;;;;;;2.35;81.91;102678.25;5069664;28;20201;-79
2023/02/10 02:33:35;;;;;;;53.43;27.77;;;;;;;2.35;82.23;102678.25;5064685;28;20197;-78
2023/02/10 02:36:06;;;;;;;55.07;27.97;;;;;;;2.34;81.90;102681.75;5070590;28;20207;-78
2023/02/10 02:38:38;;;;;;;57.33;26.53;;;;;;;2.34;82.41;102676.50;5073971;28;20224;-78
2023/02/10 02:41:05;;;;;;;62.30;26.33;;;;;;;2.32;82.92;102673.00;5070436;28;20226;-78
2023/02/10 02:43:31;;;;;;;50.73;26.07;;;;;;;2.32;83.11;102676.53;5070396;28;20680;-78
2023/02/10 02:46:06;;;;;;;54.83;26.17;;;;;;;2.33;82.83;102680.03;5067757;28;20816;-78
2023/02/10 02:48:44;;;;;;;54.17;26.00;;;;;;;2.32;83.34;102681.78;5065134;28;20224;-78
2023/02/10 02:51:17;;;;;;;52.40;24.97;;;;;;;2.33;82.81;102680.88;5065369;28;21604;-78
2023/02/10 02:53:51;;;;;;;53.70;24.63;;;;;;;2.34;83.67;102681.75;5069165;28;20200;-78
2023/02/10 02:59:24;;;;;;;58.43;26.37;;;;;;;2.32;84.10;102670.38;5063658;28;21360;-78
2023/02/10 03:01:55;;;;;;;50.93;25.57;;;;;;;2.30;84.34;102670.38;5063689;28;20247;-78
2023/02/10 03:04:27;;;;;;;59.23;26.90;;;;;;;2.29;83.94;102673.88;5058546;28;21553;-78
2023/02/10 03:06:53;;;;;;;54.30;27.30;;;;;;;2.30;84.18;102677.38;5065955;28;20196;-77
2023/02/10 03:09:21;;;;;;;58.63;26.60;;;;;;;2.29;84.15;102673.00;5065420;28;20229;-77
2023/02/10 03:11:47;;;;;;;55.17;26.90;;;;;;;2.28;84.10;102674.75;5067381;28;20616;-78
2023/02/10 03:14:14;;;;;;;54.80;27.77;;;;;;;2.27;84.85;102674.75;5059877;28;20219;-78
2023/02/10 03:16:40;;;;;;;51.00;26.07;;;;;;;2.27;83.97;102672.13;5063198;28;20650;-78
2023/02/10 03:19:07;;;;;;;53.50;25.60;;;;;;;2.27;83.98;102670.38;5068840;28;20573;-78
2023/02/10 03:21:35;;;;;;;54.83;26.63;;;;;;;2.26;84.20;102665.97;5072631;28;20228;-78
2023/02/10 03:24:01;;;;;;;57.67;27.23;;;;;;;2.25;84.50;102666.84;5065494;28;20281;-78
2023/02/10 03:26:28;;;;;;;57.83;26.03;;;;;;;2.23;85.20;102659.81;5068794;28;20209;-78
2023/02/10 03:28:55;;;;;;;54.63;27.00;;;;;;;2.24;84.94;102666.84;5068633;28;20302;-78
2023/02/10 03:31:22;;;;;;;61.90;28.53;;;;;;;2.22;85.41;102668.59;5064251;28;20225;-78
2023/02/10 03:33:48;;;;;;;60.67;28.83;;;;;;;2.22;85.51;102677.34;5064093;28;20198;-78
2023/02/10 03:36:15;;;;;;;64.37;27.93;;;;;;;2.22;84.80;102671.22;5065693;28;20209;-78
2023/02/10 03:38:42;;;;;;;59.53;28.00;;;;;;;2.21;84.85;102666.81;5066853;28;20559;-79
2023/02/10 03:41:09;;;;;;;60.63;26.80;;;;;;;2.20;85.49;102678.22;5073291;28;20231;-78
2023/02/10 03:43:35;;;;;;;55.40;26.53;;;;;;;2.20;85.50;102672.97;5070539;28;20602;-77
2023/02/10 03:46:02;;;;;;;53.80;25.87;;;;;;;2.17;84.94;102676.44;5069315;28;20213;-78
2023/02/10 03:48:31;;;;;;;61.40;27.93;;;;;;;2.19;84.89;102679.09;5068922;28;20225;-78
2023/02/10 03:50:57;;;;;;;55.87;26.20;;;;;;;2.16;85.09;102681.69;5069894;28;20229;-78
2023/02/10 03:53:24;;;;;;;54.23;26.40;;;;;;;2.16;85.92;102679.06;5066009;28;20210;-78
2023/02/10 03:55:52;;;;;;;60.20;27.87;;;;;;;2.16;86.17;102679.06;5068143;28;20676;-78
2023/02/10 03:58:18;;;;;;;50.00;26.63;;;;;;;2.15;85.29;102686.06;5073325;28;20670;-77
2023/02/10 04:00:45;;;;;;;57.13;26.03;;;;;;;2.15;86.22;102687.84;5070910;28;20204;-77
2023/02/10 04:03:11;;;;;;;51.97;27.27;;;;;;;2.14;86.16;102688.72;5067943;28;20213;-77
2023/02/10 04:05:38;;;;;;;48.70;24.60;;;;;;;2.14;85.63;102693.97;5065467;28;20206;-77
2023/02/10 04:08:05;;;;;;;49.53;25.13;;;;;;;2.14;86.14;102686.97;5062476;28;20627;-77
2023/02/10 04:10:31;;;;;;;55.33;26.00;;;;;;;2.16;85.65;102687.84;5068335;28;20201;-77
2023/02/10 04:12:59;;;;;;;52.33;27.47;;;;;;;2.14;86.07;102684.34;5070812;28;20683;-77
2023/02/10 04:15:26;;;;;;;57.70;26.33;;;;;;;2.15;86.08;102687.84;5070815;28;20212;-76
2023/02/10 04:17:52;;;;;;;52.70;25.87;;;;;;;2.15;86.31;102690.47;5065610;28;20201;-77
2023/02/10 04:20:19;;;;;;;59.33;26.57;;;;;;;2.17;86.78;102699.22;5067721;28;20573;-77
2023/02/10 04:22:45;;;;;;;47.23;25.17;;;;;;;2.17;86.06;102691.34;5071452;28;20213;-77
2023/02/10 04:25:12;;;;;;;48.30;24.40;;;;;;;2.17;86.08;102684.34;5065010;28;20209;-76
2023/02/10 04:27:38;;;;;;;51.00;25.00;;;;;;;2.19;86.94;102689.59;5067932;28;20202;-77
2023/02/10 04:30:08;;;;;;;48.77;24.57;;;;;;;2.19;86.88;102689.59;5068317;28;20224;-77
2023/02/10 04:32:34;;;;;;;43.00;23.47;;;;;;;2.20;87.09;102688.72;5070572;28;20229;-78
2023/02/10 04:35:01;;;;;;;54.10;24.30;;;;;;;2.21;86.44;102686.09;5062308;28;20235;-77
2023/02/10 04:37:27;;;;;;;45.30;22.83;;;;;;;2.22;86.40;102681.72;5066431;28;20209;-78
2023/02/10 04:39:54;;;;;;;48.00;23.63;;;;;;;2.23;86.44;102688.75;5063630;28;20219;-77
2023/02/10 04:42:29;;;;;;;44.13;23.10;;;;;;;2.24;86.61;102685.25;5065451;28;20221;-77
2023/02/10 04:44:56;;;;;;;49.43;24.30;;;;;;;2.25;86.92;102676.50;5070076;28;20196;-77
2023/02/10 04:47:24;;;;;;;49.70;23.53;;;;;;;2.26;87.29;102676.50;5070544;28;20204;-77
2023/02/10 04:49:50;;;;;;;41.13;22.60;;;;;;;2.29;86.38;102680.88;5065810;28;20623;-76
2023/02/10 04:52:17;;;;;;;45.07;23.57;;;;;;;2.30;86.58;102674.75;5067483;28;20239;-77
2023/02/10 04:54:44;;;;;;;40.17;21.20;;;;;;;2.31;87.02;102676.53;5064560;28;20205;-77
2023/02/10 04:57:10;;;;;;;39.23;22.13;;;;;;;2.32;86.44;102679.16;5069303;28;20707;-77
2023/02/10 04:59:37;;;;;;;42.93;22.30;;;;;;;2.31;87.43;102671.25;5063511;28;20209;-77
2023/02/10 05:02:03;;;;;;;40.67;21.47;;;;;;;2.32;86.57;102680.91;5060249;28;20216;-77
2023/02/10 05:04:31;;;;;;;41.50;22.03;;;;;;;2.32;87.10;102671.25;5065011;28;20236;-80
2023/02/10 05:06:58;;;;;;;41.63;22.17;;;;;;;2.31;86.81;102653.72;5069849;28;20197;-80
2023/02/10 05:09:26;;;;;;;38.13;21.17;;;;;;;2.30;87.80;102665.13;5064150;28;20260;-81
2023/02/10 05:11:53;;;;;;;45.40;22.70;;;;;;;2.34;87.17;102676.50;5064822;28;20217;-79
2023/02/10 05:14:19;;;;;;;51.20;21.63;;;;;;;2.35;86.92;102678.25;5064993;28;20201;-81
2023/02/10 05:16:46;;;;;;;42.87;21.83;;;;;;;2.33;87.68;102686.13;5060392;28;20205;-81
2023/02/10 05:19:13;;;;;;;41.20;22.27;;;;;;;2.31;87.75;102677.41;5063761;28;20262;-79
2023/02/10 05:21:41;;;;;;;44.33;22.47;;;;;;;2.34;87.81;102680.00;5065944;28;20259;-79
2023/02/10 05:24:07;;;;;;;40.97;23.07;;;;;;;2.35;87.33;102683.50;5070008;28;20208;-79
2023/02/10 05:26:34;;;;;;;44.37;21.40;;;;;;;2.34;88.12;102687.00;5070304;28;20205;-80
2023/02/10 05:29:00;;;;;;;44.40;23.43;;;;;;;2.35;87.71;102688.78;5064948;28;20698;-81
2023/02/10 05:31:27;;;;;;;46.13;23.03;;;;;;;2.36;87.53;102685.28;5065761;28;20634;-80
2023/02/10 05:33:53;;;;;;;45.40;21.80;;;;;;;2.36;87.95;102685.28;5073158;28;20561;-80
2023/02/10 05:36:20;;;;;;;39.27;21.17;;;;;;;2.36;88.00;102685.28;5065611;28;20233;-79
2023/02/10 05:41:28;;;;;;;37.77;20.47;;;;;;;2.37;88.18;102684.41;5071129;28;20235;-80
2023/02/10 05:43:54;;;;;;;38.53;20.07;;;;;;;2.39;87.70;102690.53;5073551;28;20227;-80
2023/02/10 05:46:21;;;;;;;41.07;20.60;;;;;;;2.40;87.96;102689.69;5066696;28;20235;-79
2023/02/10 05:48:47;;;;;;;40.50;21.13;;;;;;;2.40;88.36;102687.03;5066640;28;20221;-79
2023/02/10 05:51:14;;;;;;;42.30;19.60;;;;;;;2.40;88.21;102684.41;5066146;28;20847;-79
2023/02/10 05:53:40;;;;;;;44.07;21.30;;;;;;;2.41;88.70;102675.66;5061276;28;20584;-79
2023/02/10 05:56:08;;;;;;;42.90;21.50;;;;;;;2.42;88.58;102686.19;5068085;28;20204;-80
2023/02/10 05:58:34;;;;;;;39.40;20.97;;;;;;;2.43;88.60;102702.84;5071020;28;20209;-79
2023/02/10 06:01:06;;;;;;;48.00;24.03;;;;;;;2.41;89.14;102694.94;5063990;28;20305;-80
2023/02/10 06:03:32;;;;;;;41.60;21.60;;;;;;;2.41;89.20;102697.56;5066803;28;20775;-80
2023/02/10 06:06:01;;;;;;;46.00;21.77;;;;;;;2.41;88.38;102701.94;5066791;28;20645;-79
2023/02/10 06:08:27;;;;;;;43.00;22.90;;;;;;;2.39;89.20;102712.47;5063527;28;20316;-80
2023/02/10 06:10:54;;;;;;;47.33;22.27;;;;;;;2.39;89.10;102707.19;5060032;28;20236;-79
2023/02/10 06:13:22;;;;;;;40.00;20.97;;;;;;;2.39;89.21;102712.47;5064667;28;20196;-78
2023/02/10 06:15:48;;;;;;;46.03;21.77;;;;;;;2.38;89.40;102717.72;5059837;28;20205;-78
2023/02/10 06:18:15;;;;;;;47.87;23.73;;;;;;;2.39;89.44;102716.84;5064526;28;20254;-78
2023/02/10 06:20:41;;;;;;;50.67;23.60;;;;;;;2.41;89.06;102723.00;5064995;28;20209;-78
2023/02/10 06:23:08;;;;;;;52.70;24.27;;;;;;;2.41;88.50;102728.25;5065662;28;20196;-78
2023/02/10 06:25:35;;;;;;;47.93;23.77;;;;;;;2.42;88.95;102727.38;5057619;28;20209;-77
2023/02/10 06:28:02;;;;;;;44.90;23.73;;;;;;;2.42;89.01;102725.63;5058592;28;20227;-77
2023/02/10 06:30:30;;;;;;;51.27;23.83;;;;;;;2.41;89.22;102733.50;5055841;28;20225;-78
2023/02/10 06:32:56;;;;;;;51.43;25.17;;;;;;;2.41;89.11;102726.50;5055120;28;20721;-78
2023/02/10 06:35:22;;;;;;;46.40;23.47;;;;;;;2.41;88.58;102736.13;5059304;28;20585;-79
2023/02/10 06:37:49;;;;;;;43.07;22.07;;;;;;;2.43;88.63;102735.28;5065339;28;20696;-78
2023/02/10 06:40:15;;;;;;;47.37;22.90;;;;;;;2.42;89.26;102740.53;5064514;28;20209;-78
2023/02/10 06:42:42;;;;;;;39.30;21.33;;;;;;;2.42;88.71;102749.28;5060655;28;20232;-77
2023/02/10 06:45:09;;;;;;;45.17;24.07;;;;;;;2.39;89.69;102749.28;5064084;28;20204;-78
2023/02/10 06:47:38;;;;;;;50.63;24.17;;;;;;;2.38;89.51;102752.78;5061530;28;20201;-78
2023/02/10 06:50:06;;;;;;;47.27;22.67;;;;;;;2.38;89.24;102762.41;5061951;28;20236;-79
2023/02/10 06:52:34;;;;;;;53.90;23.23;;;;;;;2.38;89.77;102757.16;5065658;28;20228;-79
2023/02/10 06:55:01;;;;;;;45.43;24.23;;;;;;;2.38;89.51;102765.03;5070146;28;20566;-78
2023/02/10 06:57:27;;;;;;;50.37;24.60;;;;;;;2.36;88.95;102759.78;5066305;28;20213;-77
2023/02/10 06:59:54;;;;;;;50.37;25.13;;;;;;;2.36;90.03;102758.91;5066622;28;20206;-78
2023/02/10 07:02:21;;;;;;;43.23;22.57;;;;;;;2.33;89.51;102745.78;5066764;28;20275;-78
2023/02/10 07:04:48;;;;;;;53.67;23.30;;;;;;;2.31;89.25;102761.53;5059666;28;20209;-77
2023/02/10 07:07:15;;;;;;;60.37;23.70;;;;;;;2.30;90.08;102764.16;5065865;28;20209;-77
2023/02/10 07:09:41;;;;;;;50.07;23.67;;;;;;;2.31;89.49;102771.19;5061831;28;20234;-78
2023/02/10 07:12:08;;;;;;;47.17;23.20;;;;;;;2.29;90.24;102765.91;5058269;28;20235;-78
2023/02/10 07:14:34;;;;;;;53.30;24.43;;;;;;;2.30;89.99;102765.03;5059664;28;20201;-77
2023/02/10 07:17:01;;;;;;;44.90;22.87;;;;;;;2.30;89.55;102765.03;5060752;28;20615;-78
2023/02/10 07:19:27;;;;;;;49.70;23.53;;;;;;;2.29;89.91;102763.28;5057786;28;20197;-79
2023/02/10 07:21:55;;;;;;;46.07;23.37;;;;;;;2.28;89.81;102772.03;5060297;28;20248;-76
2023/02/10 07:24:21;;;;;;;48.73;23.70;;;;;;;2.26;89.88;102762.38;5061720;28;20209;-76
2023/02/10 07:26:48;;;;;;;53.87;25.00;;;;;;;2.26;90.11;102759.75;5062135;28;20213;-77
2023/02/10 07:29:14;;;;;;;50.23;23.87;;;;;;;2.27;90.65;102761.50;5062736;28;20197;-80
2023/02/10 07:31:41;;;;;;;49.07;22.90;;;;;;;2.26;90.90;102767.63;5065134;28;20229;-82
2023/02/10 07:34:07;;;;;;;49.80;25.30;;;;;;;2.26;91.07;102758.00;5062646;28;20208;-81
2023/02/10 07:36:34;;;;;;;49.97;23.87;;;;;;;2.25;90.64;102766.75;5063051;28;20916;-82
2023/02/10 07:39:01;;;;;;;53.50;25.90;;;;;;;2.26;91.25;102765.88;5070716;28;20204;-81
2023/02/10 07:41:28;;;;;;;63.27;28.47;;;;;;;2.28;91.40;102771.16;5061685;28;20233;-80
2023/02/10 07:43:54;;;;;;;60.83;25.17;;;;;;;2.30;91.05;102766.78;5056560;28;20202;-80
2023/02/10 07:46:21;;;;;;;53.10;26.10;;;;;;;2.31;90.90;102772.06;5071708;28;20215;-80
2023/02/10 07:48:47;;;;;;;51.80;26.03;;;;;;;2.34;90.95;102781.69;5054226;28;20212;-81
2023/02/10 07:51:14;;;;;;;55.30;24.43;;;;;;;2.36;91.88;102785.19;5060523;28;20229;-81
2023/02/10 07:53:42;;;;;;;49.43;23.30;;;;;;;2.35;92.03;102784.31;5062579;28;20210;-80
2023/02/10 07:56:10;;;;;;;60.67;27.50;;;;;;;2.36;92.55;102779.94;5070908;28;20209;-80
2023/02/10 07:58:37;;;;;;;55.00;25.53;;;;;;;2.38;92.42;102788.72;5063061;28;20303;-81
2023/02/10 08:01:07;;;;;;;57.80;25.97;;;;;;;2.39;92.92;102785.22;5060377;28;20222;-80
2023/02/10 08:03:33;;;;;;;57.53;26.93;;;;;;;2.44;92.93;102781.75;5071338;28;20201;-80
2023/02/10 08:05:59;;;;;;;57.53;23.57;;;;;;;2.47;92.62;102791.41;5051994;28;20198;-80
2023/02/10 08:08:26;;;;;;;55.07;25.67;;;;;;;2.51;92.96;102787.03;5058911;28;20212;-80
2023/02/10 08:10:52;;;;;;;49.00;24.33;;;;;;;2.56;92.61;102798.44;5066367;28;20237;-81
2023/02/10 08:13:20;;;;;;;53.20;26.03;;;;;;;2.56;92.40;102788.78;5049727;28;20213;-81
2023/02/10 08:15:47;;;;;;;52.40;24.83;;;;;;;2.60;92.26;102789.69;5058636;28;20219;-82
2023/02/10 08:18:13;;;;;;;55.40;24.60;;;;;;;2.60;92.56;102795.84;5053188;28;20217;-81
2023/02/10 08:20:41;;;;;;;59.30;27.33;;;;;;;2.63;92.62;102795.84;5058262;28;20209;-81
2023/02/10 08:23:07;;;;;;;58.83;24.37;;;;;;;2.66;92.85;102803.75;5067286;28;20213;-81
2023/02/10 08:25:34;;;;;;;66.27;26.80;;;;;;;2.67;92.41;102795.00;5066569;28;20213;-81
2023/02/10 08:28:00;;;;;;;58.57;26.43;;;;;;;2.69;92.27;102801.09;5066117;28;20204;-81
2023/02/10 08:30:28;;;;;;;55.40;26.93;;;;;;;2.72;92.28;102795.84;5072396;28;20244;-80
2023/02/10 08:32:55;;;;;;;56.10;26.60;;;;;;;2.75;92.13;102809.03;5056696;28;20228;-80
2023/02/10 08:35:21;;;;;;;56.37;25.67;;;;;;;2.77;93.09;102804.66;5073252;28;20219;-81
2023/02/10 08:37:47;;;;;;;61.47;29.13;;;;;;;2.78;92.37;102811.69;5071726;28;20703;-81
2023/02/10 08:40:14;;;;;;;59.93;26.43;;;;;;;2.82;92.74;102811.69;5077130;28;20197;-81
2023/02/10 08:42:41;;;;;;;56.20;26.63;;;;;;;2.86;92.86;102813.47;5056282;28;20238;-80
2023/02/10 08:45:08;;;;;;;53.53;26.90;;;;;;;2.92;93.34;102808.19;5073990;28;20205;-81
2023/02/10 08:47:36;;;;;;;57.30;25.07;;;;;;;2.99;93.24;102804.72;5065131;28;20202;-81
2023/02/10 08:50:03;;;;;;;56.93;26.20;;;;;;;3.04;93.19;102809.13;5061111;28;20232;-81
2023/02/10 08:52:30;;;;;;;65.83;27.23;;;;;;;3.09;92.32;102814.38;5057370;28;20221;-80
2023/02/10 08:54:59;;;;;;;62.60;27.20;;;;;;;3.18;93.09;102810.91;5057359;28;20209;-81
2023/02/10 08:57:26;;;;;;;61.80;27.53;;;;;;;3.21;92.19;102816.19;5068431;28;20205;-80
2023/02/10 08:59:52;;;;;;;58.40;27.70;;;;;;;3.24;92.60;102819.66;5056751;28;20201;-81
2023/02/10 09:02:19;;;;;;;63.63;28.77;;;;;;;3.32;92.86;102831.09;5065599;28;20222;-81
2023/02/10 09:04:46;;;;;;;66.37;28.50;;;;;;;3.38;92.75;102822.34;5062442;28;20213;-81
2023/02/10 09:07:13;;;;;;;60.40;29.50;;;;;;;3.42;92.54;102827.59;5054300;28;20209;-80
2023/02/10 09:09:42;;;;;;;66.43;29.57;;;;;;;3.51;92.73;102821.47;5072038;28;20219;-81
2023/02/10 09:12:11;;;;;;;70.77;30.30;;;;;;;3.56;91.66;102824.09;5068433;28;20217;-81
2023/02/10 09:14:38;;;;;;;64.63;29.37;;;;;;;3.64;92.15;102828.47;5068077;28;20244;-82
2023/02/10 09:17:04;;;;;;;68.67;30.40;;;;;;;3.70;91.59;102828.50;5073531;28;20204;-80
2023/02/10 09:19:31;;;;;;;73.63;32.20;;;;;;;3.78;91.41;102829.34;5057656;28;20210;-81
2023/02/10 09:21:59;;;;;;;67.67;29.27;;;;;;;3.82;91.13;102827.59;5053912;28;20244;-81
2023/02/10 09:24:25;;;;;;;73.80;32.50;;;;;;;3.86;90.55;102836.38;5085582;28;20208;-80
2023/02/10 09:26:52;;;;;;;63.23;29.63;;;;;;;3.88;90.47;102822.34;5074497;28;20515;-80
2023/02/10 09:29:19;;;;;;;69.97;32.20;;;;;;;3.86;89.68;102834.63;5072065;28;20561;-80
2023/02/10 09:31:45;;;;;;;67.43;30.13;;;;;;;3.86;89.70;102842.53;5071147;28;20227;-81
2023/02/10 09:34:12;;;;;;;66.40;30.33;;;;;;;3.90;89.39;102844.31;5075853;28;20216;-80
2023/02/10 09:36:38;;;;;;;70.57;29.53;;;;;;;3.95;89.50;102842.53;5070662;28;20208;-80
2023/02/10 09:39:06;;;;;;;71.33;29.77;;;;;;;3.98;88.99;102844.28;5072401;28;20200;-80
2023/02/10 09:41:45;;;;;;;66.90;28.97;;;;;;;3.99;88.83;102843.41;5062987;28;20700;-81
2023/02/10 09:44:17;;;;;;;72.53;31.73;;;;;;;3.99;88.97;102848.66;5053900;28;20193;-80
2023/02/10 09:46:55;;;;;;;67.67;29.90;;;;;;;4.00;88.65;102850.44;5055591;28;20198;-82
2023/02/10 09:49:50;;;;;;;71.03;32.10;;;;;;;3.98;88.52;102854.81;5065685;28;20236;-81
2023/02/10 09:52:26;;;;;;;76.73;32.07;;;;;;;3.98;88.26;102855.69;5053056;28;20732;-80
2023/02/10 09:54:57;;;;;;;67.07;29.90;;;;;;;3.97;87.73;102859.22;5063996;28;20681;-80
2023/02/10 09:57:33;;;;;;;67.83;30.63;;;;;;;3.98;88.06;102860.09;5063371;28;20216;-79
2023/02/10 10:00:01;;;;;;;74.70;31.03;;;;;;;4.00;87.89;102858.34;5068723;28;20204;-78
2023/02/10 10:02:33;;;;;;;64.77;31.30;;;;;;;4.00;88.14;102863.63;5067439;28;20239;-79
2023/02/10 10:05:02;;;;;;;71.47;30.67;;;;;;;4.01;88.44;102850.44;5061298;28;20200;-78
2023/02/10 10:07:35;;;;;;;68.93;30.67;;;;;;;4.05;88.49;102854.84;5072123;28;20262;-78
2023/02/10 10:10:13;;;;;;;72.07;32.30;;;;;;;4.06;88.26;102848.69;5067747;28;20201;-78
2023/02/10 10:12:40;;;;;;;69.73;31.53;;;;;;;4.06;87.73;102847.81;5075728;28;20217;-79
2023/02/10 10:15:15;;;;;;;72.20;35.30;;;;;;;4.03;87.70;102853.94;5070974;28;20209;-78
2023/02/10 10:17:58;;;;;;;68.63;32.17;;;;;;;4.06;87.49;102853.06;5070558;28;20864;-78
2023/02/10 10:20:40;;;;;;;74.17;31.53;;;;;;;4.06;88.06;102848.69;5070141;28;20189;-78
2023/02/10 10:23:20;;;;;;;75.70;32.10;;;;;;;4.07;87.96;102849.56;5070252;28;20220;-78
2023/02/10 10:26:05;;;;;;;74.07;32.27;;;;;;;4.08;87.88;102848.69;5069458;28;20208;-78
2023/02/10 10:28:46;;;;;;;79.13;31.00;;;;;;;4.09;87.63;102848.69;5067489;28;20196;-79
2023/02/10 10:31:16;;;;;;;73.83;33.27;;;;;;;4.08;87.69;102844.28;5067338;28;20225;-79
2023/02/10 10:33:49;;;;;;;67.67;29.87;;;;;;;4.09;87.78;102853.06;5071482;28;20205;-78
2023/02/10 10:36:18;;;;;;;72.47;30.50;;;;;;;4.10;87.71;102845.16;5073322;28;20201;-79
2023/02/10 10:38:49;;;;;;;72.13;31.43;;;;;;;4.17;87.94;102841.63;5068067;28;20208;-78
2023/02/10 10:41:17;;;;;;;78.17;31.47;;;;;;;4.27;87.65;102838.97;5069245;28;20698;-79
2023/02/10 10:43:46;;;;;;;75.17;30.93;;;;;;;4.31;87.44;102854.75;5067928;28;20228;-78
2023/02/10 10:46:19;;;;;;;67.90;29.67;;;;;;;4.30;86.97;102844.25;5066430;28;20596;-79
2023/02/10 10:48:46;;;;;;;75.37;31.73;;;;;;;4.27;87.02;102850.41;5067788;28;20197;-78
2023/02/10 10:51:13;;;;;;;72.23;30.33;;;;;;;4.28;86.80;102846.00;5072070;28;20609;-80
2023/02/10 10:53:42;;;;;;;66.63;28.67;;;;;;;4.30;86.79;102845.09;5067530;28;20296;-78
2023/02/10 10:56:17;;;;;;;67.00;29.47;;;;;;;4.34;86.56;102836.28;5062733;28;20291;-80
2023/02/10 10:58:46;;;;;;;64.03;26.10;;;;;;;4.37;86.08;102831.00;5065375;28;20204;-79
2023/02/10 11:01:14;;;;;;;67.07;28.97;;;;;;;4.37;85.65;102819.59;5069559;28;20237;-79
2023/02/10 11:03:41;;;;;;;64.20;27.83;;;;;;;4.36;85.93;102831.91;5064497;28;20204;-80
2023/02/10 11:06:14;;;;;;;63.23;29.00;;;;;;;4.37;85.40;102830.13;5070811;28;20209;-80
2023/02/10 11:08:45;;;;;;;69.53;27.97;;;;;;;4.36;85.70;102826.63;5064326;28;20674;-79
2023/02/10 11:11:14;;;;;;;57.07;25.97;;;;;;;4.39;85.69;102820.47;5066184;28;20721;-79
2023/02/10 11:13:52;;;;;;;58.07;27.67;;;;;;;4.38;85.56;102818.69;5063199;28;20206;-79
2023/02/10 11:16:21;;;;;;;63.77;29.33;;;;;;;4.40;85.64;102817.81;5066124;28;20205;-79
2023/02/10 11:18:55;;;;;;;58.53;27.67;;;;;;;4.41;85.28;102811.66;5065256;28;20621;-79
2023/02/10 11:21:33;;;;;;;59.70;27.83;;;;;;;4.41;85.50;102818.69;5067407;28;20223;-79
2023/02/10 11:23:59;;;;;;;65.97;27.93;;;;;;;4.44;85.08;102819.56;5066816;28;20707;-79
2023/02/10 11:26:28;;;;;;;64.40;28.30;;;;;;;4.46;85.30;102816.94;5070567;28;20228;-78
2023/02/10 11:28:55;;;;;;;65.87;28.03;;;;;;;4.47;84.94;102823.97;5069199;28;20220;-79
2023/02/10 11:31:32;;;;;;;58.47;25.50;;;;;;;4.46;84.99;102817.81;5059880;28;20228;-78